Flight Track Log - Related Links

Times and Time Zones

All times are in EDT time to prevent confusion due to time zone crossing. See the C-GSEU flight status page for this flight to view local times or setup timezone preferences in your user account.


Time Position Orientation Groundspeed Altitude Reporting Facility
EDT Latitude Longitude Course Direction KTS MPH feet Rate Location/Type
Wed 06:04:44 PM 43.0500 -78.2500 271° West 127 146 3,500  Level Buffalo TRACON
Wed 06:05:36 PM 43.0506 -78.3019 271° West 121 139 3,600 54 Climbing Cleveland Center
Wed 06:06:36 PM 43.0533 -78.3472 275° West 117 135 3,600 -32 Level Cleveland Center
Wed 06:08:44 PM 43.0667 -78.4333 282° West 113 130 3,500 -31 Descending Buffalo TRACON
Wed 06:09:50 PM 43.0667 -78.4833 270° West 116 133 3,500  Level Buffalo TRACON
Wed 06:10:45 PM 43.0667 -78.5167 270° West 119 137 3,500 400 Level Buffalo TRACON
Wed 06:11:50 PM 43.0667 -78.5667 270° West 106 122 4,300 476 Climbing Buffalo TRACON
Wed 06:12:51 PM 43.0833 -78.6000 304° West 98 113 4,500 99 Climbing Buffalo TRACON
Wed 06:13:51 PM 43.0833 -78.6500 270° West 111 128 4,500  Level Buffalo TRACON
Wed 06:14:51 PM 43.0833 -78.6833 270° West 110 127 4,500  Level Buffalo TRACON
Wed 06:15:57 PM 43.0833 -78.7333 270° West 108 124 4,500  Level Buffalo TRACON
Wed 06:16:51 PM 43.0833 -78.7667 270° West 112 129 4,500  Level Buffalo TRACON
Wed 06:17:51 PM 43.1000 -78.8167 295° West 113 130 4,500  Level Buffalo TRACON
Wed 06:18:51 PM 43.0833 -78.8500 236° Southwest 107 123 4,500  Level Buffalo TRACON
Wed 06:19:51 PM 43.0833 -78.9000 270° West 108 124 4,500  Level Buffalo TRACON
Wed 06:20:33 PM 43.0833 -78.9000 270° West 110 127 4,500  Level Toronto Center
Wed 06:21:33 PM 43.0667 -78.9500 245° Southwest 110 127 4,500  Level Toronto Center
Wed 06:22:33 PM 43.0667 -79.0000 270° West 110 127 4,500  Level Toronto Center
Wed 06:24:33 PM 43.0500 -79.0667 251° West 110 127 4,500  Level Toronto Center
Wed 06:25:33 PM 43.0667 -79.0833 324° Northwest 110 127 4,500  Level Toronto Center
Wed 06:26:33 PM 43.0833 -79.0667 36° Northeast 110 127 4,500  Level Toronto Center
Wed 06:27:33 PM 43.1167 -79.0333 36° Northeast 110 127 4,500  Level Toronto Center
Wed 06:28:33 PM 43.1000 -79.0167 144° Southeast 90 104 4,500  Level Toronto Center
Wed 06:29:33 PM 43.0833 -79.0333 216° Southwest 100 115 4,500  Level Toronto Center
Wed 06:30:33 PM 43.0500 -79.0333 180° South 100 115 4,500  Level Toronto Center
Wed 06:31:33 PM 43.0500 -79.0833 270° West 100 115 4,500  Level Toronto Center
Wed 06:32:33 PM 43.0500 -79.1167 270° West 110 127 4,500  Level Toronto Center
Wed 06:33:33 PM 43.0667 -79.1500 304° West 110 127 4,500  Level Toronto Center
Wed 06:34:33 PM 43.0833 -79.2000 295° West 110 127 4,500 50 Level Toronto Center
Wed 06:35:33 PM 43.1000 -79.2167 324° Northwest 120 138 4,600  Climbing Toronto Center
Wed 06:36:33 PM 43.1167 -79.2667 295° West 110 127 4,500  Descending Toronto Center
Wed 06:37:33 PM 43.1167 -79.3167 270° West 110 127 4,600 50 Climbing Toronto Center
Wed 06:38:33 PM 43.1333 -79.3667 295° West 110 127 4,600  Level Toronto Center
Wed 06:39:33 PM 43.1500 -79.3833 324° Northwest 110 127 4,600  Level Toronto Center
Wed 06:40:33 PM 43.1500 -79.4333 270° West 110 127 4,600  Level Toronto Center

Login

Don't have an account? Register now (free) for customized features, flight alerts, and more!